createdAt,value
2018-09-23T00:01:59.632Z,97336.45
2018-09-23T00:04:28.726Z,97336.45
2018-09-23T00:06:57.879Z,97348.34
2018-09-23T00:09:26.981Z,97356.83
2018-09-23T00:11:56.072Z,97364.06
2018-09-23T00:14:25.165Z,97362.79
2018-09-23T00:16:54.213Z,97357.23
2018-09-23T00:19:23.309Z,97350.86
2018-09-23T00:21:52.407Z,97342.35
2018-09-23T00:24:21.477Z,97346.59
2018-09-23T00:26:51.145Z,97345.73
2018-09-23T00:29:24.373Z,97340.63
2018-09-23T00:31:53.476Z,97340.63
2018-09-23T00:34:22.576Z,97351.23
2018-09-23T00:36:51.642Z,97346.59
2018-09-23T00:39:21.105Z,97335.53
2018-09-23T00:41:50.189Z,97344.83
2018-09-23T00:44:19.311Z,97350.78
2018-09-23T00:46:48.407Z,97342.27
2018-09-23T00:49:17.505Z,97347.37
2018-09-23T00:51:47.129Z,97340.58
2018-09-23T00:54:16.200Z,97340.58
2018-09-23T00:56:45.266Z,97333.77
2018-09-23T00:59:14.409Z,97330.34
2018-09-23T01:01:43.587Z,97332.03
2018-09-23T01:04:12.646Z,97335.41
2018-09-23T01:06:41.771Z,97334.57
2018-09-23T01:09:11.209Z,97337.94
2018-09-23T01:11:40.309Z,97338.75
2018-09-23T01:14:09.431Z,97339.98
2018-09-23T01:16:38.515Z,97339.58
2018-09-23T01:19:07.547Z,97337.84
2018-09-23T01:21:36.577Z,97332.28
2018-09-23T01:24:05.691Z,97325.90
2018-09-23T01:26:34.803Z,97322.08
2018-09-23T01:29:03.918Z,97326.66
2018-09-23T01:31:33.007Z,97333.39
2018-09-23T01:34:02.055Z,97330.93
2018-09-23T01:36:31.077Z,97316.07
2018-09-23T01:39:00.145Z,97313.11
2018-09-23T01:41:29.200Z,97316.44
2018-09-23T01:43:58.292Z,97313.10
2018-09-23T01:46:27.349Z,97307.16
2018-09-23T01:48:56.427Z,97297.83
2018-09-23T01:51:25.455Z,97300.80
2018-09-23T01:53:54.483Z,97294.47
2018-09-23T01:56:23.529Z,97300.39
2018-09-23T01:58:52.565Z,97301.25
2018-09-23T02:01:21.714Z,97295.75
2018-09-23T02:03:50.833Z,97286.84
2018-09-23T02:06:19.911Z,97290.23
2018-09-23T02:08:48.965Z,97295.30
2018-09-23T02:11:18.055Z,97294.02
2018-09-23T02:13:47.118Z,97289.33
2018-09-23T02:16:16.142Z,97290.19
2018-09-23T02:18:45.210Z,97288.42
2018-09-23T02:21:14.288Z,97285.00
2018-09-23T02:23:43.322Z,97280.31
2018-09-23T02:26:12.333Z,97274.81
2018-09-23T02:28:41.359Z,97283.28
2018-09-23T02:31:10.389Z,97273.95
2018-09-23T02:33:39.477Z,97266.30
2018-09-23T02:36:08.520Z,97269.26
2018-09-23T02:38:37.567Z,97265.86
2018-09-23T02:41:06.680Z,97266.30
2018-09-23T02:43:35.755Z,97265.45
2018-09-23T02:46:04.831Z,97261.21
2018-09-23T02:48:33.929Z,97263.77
2018-09-23T02:51:03.033Z,97249.31
2018-09-23T02:53:32.120Z,97243.80
2018-09-23T02:56:01.265Z,97239.12
2018-09-23T02:58:30.329Z,97235.75
2018-09-23T03:00:59.405Z,97226.80
2018-09-23T03:03:28.505Z,97232.75
2018-09-23T03:05:57.607Z,97236.98
2018-09-23T03:08:26.673Z,97233.97
2018-09-23T03:10:55.769Z,97234.84
2018-09-23T03:13:24.876Z,97229.75
2018-09-23T03:15:53.959Z,97224.25
2018-09-23T03:18:23.798Z,97217.44
2018-09-23T03:20:52.847Z,97212.74
2018-09-23T03:23:22.005Z,97210.19
2018-09-23T03:25:51.076Z,97211.05
2018-09-23T03:28:20.188Z,97209.33
2018-09-23T03:30:49.264Z,97201.69
2018-09-23T03:33:18.367Z,97202.55
2018-09-23T03:35:47.437Z,97197.46
2018-09-23T03:38:16.586Z,97194.09
2018-09-23T03:40:45.666Z,97196.61
2018-09-23T03:43:14.750Z,97185.59
2018-09-23T03:45:43.829Z,97182.20
2018-09-23T03:48:12.878Z,97176.28
2018-09-23T03:50:42.030Z,97163.96
2018-09-23T03:53:11.082Z,97164.37
2018-09-23T03:55:40.184Z,97160.97
2018-09-23T03:58:09.318Z,97155.05
2018-09-23T04:00:38.438Z,97145.65
2018-09-23T04:03:07.678Z,97146.46
2018-09-23T04:05:36.784Z,97140.55
2018-09-23T04:08:05.946Z,97132.92
2018-09-23T04:10:35.026Z,97140.59
2018-09-23T04:13:04.090Z,97138.05
2018-09-23T04:15:33.171Z,97133.78
2018-09-23T04:18:02.294Z,97130.82
2018-09-23T04:20:31.369Z,97117.66
2018-09-23T04:23:00.510Z,97109.19
2018-09-23T04:25:29.659Z,97102.38
2018-09-23T04:27:58.741Z,97100.64
2018-09-23T04:30:27.783Z,97095.97
2018-09-23T04:32:56.846Z,97091.34
2018-09-23T04:35:25.925Z,97082.47
2018-09-23T04:37:55.007Z,97078.61
2018-09-23T04:40:24.082Z,97076.92
2018-09-23T04:42:53.139Z,97071.42
2018-09-23T04:45:22.203Z,97064.23
2018-09-23T04:47:51.294Z,97059.14
2018-09-23T04:50:20.349Z,97060.86
2018-09-23T04:52:49.410Z,97065.55
2018-09-23T04:55:18.517Z,97063.41
2018-09-23T04:57:47.522Z,97066.81
2018-09-23T05:00:16.586Z,97063.41
2018-09-23T05:02:45.674Z,97065.13
2018-09-23T05:05:14.738Z,97067.67
2018-09-23T05:07:43.845Z,97070.22
2018-09-23T05:10:12.962Z,97062.58
2018-09-23T05:12:42.022Z,97064.27
2018-09-23T05:15:11.078Z,97058.35
2018-09-23T05:17:40.246Z,97065.13
2018-09-23T05:20:09.328Z,97048.16
2018-09-23T05:22:38.373Z,97047.75
2018-09-23T05:25:07.430Z,97054.11
2018-09-23T05:27:36.488Z,97042.23
2018-09-23T05:30:05.703Z,97046.06
2018-09-23T05:32:34.731Z,97042.23
2018-09-23T05:35:03.832Z,97035.87
2018-09-23T05:37:32.872Z,97035.45
2018-09-23T05:40:01.943Z,97029.50
2018-09-23T05:42:30.987Z,97023.56
2018-09-23T05:45:00.032Z,97020.16
2018-09-23T05:47:29.090Z,97013.34
2018-09-23T05:49:58.174Z,97014.20
2018-09-23T05:52:27.246Z,97013.38
2018-09-23T05:54:56.287Z,97004.03
2018-09-23T05:57:25.431Z,96996.83
2018-09-23T05:59:54.559Z,96998.52
2018-09-23T06:02:23.720Z,96995.95
2018-09-23T06:04:52.833Z,97001.04
2018-09-23T06:07:22.007Z,96993.84
2018-09-23T06:09:51.135Z,96989.61
2018-09-23T06:12:20.216Z,96984.08
2018-09-23T06:14:49.327Z,96984.94
2018-09-23T06:17:18.390Z,96973.89
2018-09-23T06:19:47.538Z,96983.69
2018-09-23T06:22:16.641Z,96975.19
2018-09-23T06:24:45.750Z,96981.14
2018-09-23T06:27:14.844Z,96980.28
2018-09-23T06:29:43.951Z,96972.64
2018-09-23T06:32:13.218Z,96978.17
2018-09-23T06:34:42.285Z,96973.50
2018-09-23T06:37:11.351Z,96973.11
2018-09-23T06:39:40.458Z,96967.16
2018-09-23T06:42:09.547Z,96964.20
2018-09-23T06:44:38.631Z,96962.50
2018-09-23T06:47:07.724Z,96950.61
2018-09-23T06:49:36.905Z,96954.87
2018-09-23T06:52:06.023Z,96949.77
2018-09-23T06:54:36.921Z,96952.74
2018-09-23T06:57:06.157Z,96963.34
2018-09-23T06:59:35.231Z,96952.31
2018-09-23T07:02:10.898Z,96949.77
2018-09-23T07:04:55.221Z,96944.66
2018-09-23T07:10:44.696Z,96940.85
2018-09-23T07:13:20.985Z,96941.25
2018-09-23T07:16:02.495Z,96934.89
2018-09-23T07:18:39.745Z,96925.55
2018-09-23T07:21:09.327Z,96928.52
2018-09-23T07:24:10.272Z,96928.50
2018-09-23T07:26:39.947Z,96936.55
2018-09-23T07:29:12.854Z,96929.73
2018-09-23T07:35:02.066Z,96924.21
2018-09-23T07:37:39.665Z,96936.52
2018-09-23T07:40:26.416Z,96924.19
2018-09-23T07:43:07.054Z,96935.22
2018-09-23T07:45:42.434Z,96905.06
2018-09-23T07:51:33.892Z,96924.17
2018-09-23T07:54:12.195Z,96919.05
2018-09-23T07:56:47.426Z,96908.83
2018-09-23T07:59:32.100Z,96921.13
2018-09-23T08:02:10.997Z,96913.05
2018-09-23T08:05:00.898Z,96899.44
2018-09-23T08:07:46.998Z,96884.13
2018-09-23T08:10:16.112Z,96886.25
2018-09-23T08:12:45.474Z,96886.65
2018-09-23T08:15:15.344Z,96883.20
2018-09-23T08:17:44.769Z,96883.20
2018-09-23T08:20:14.053Z,96883.97
2018-09-23T08:22:43.159Z,96886.45
2018-09-23T08:25:13.041Z,96887.23
2018-09-23T08:27:42.186Z,96886.36
2018-09-23T08:30:11.862Z,96881.63
2018-09-23T08:32:41.406Z,96870.91
2018-09-23T08:35:10.653Z,96867.00
2018-09-23T08:37:39.808Z,96864.75
2018-09-23T08:40:08.952Z,96863.03
2018-09-23T08:42:38.134Z,96862.94
2018-09-23T08:45:07.307Z,96857.73
2018-09-23T08:47:36.768Z,96849.96
2018-09-23T08:50:06.060Z,96850.70
2018-09-23T08:52:35.215Z,96845.84
2018-09-23T08:55:04.415Z,96839.77
2018-09-23T08:57:33.594Z,96835.87
2018-09-23T09:00:02.755Z,96839.17
2018-09-23T09:02:32.389Z,96831.28
2018-09-23T09:05:01.647Z,96833.59
2018-09-23T09:07:31.121Z,96832.61
2018-09-23T09:10:00.630Z,96832.05
2018-09-23T09:12:33.518Z,96816.98
2018-09-23T09:15:05.595Z,96829.36
2018-09-23T09:17:36.224Z,96826.44
2018-09-23T09:20:07.376Z,96823.72
2018-09-23T09:22:39.616Z,96821.45
2018-09-23T09:25:10.911Z,96813.27
2018-09-23T09:27:40.645Z,96805.34
2018-09-23T09:30:09.824Z,96800.97
2018-09-23T09:32:44.056Z,96801.72
2018-09-23T09:35:13.260Z,96800.69
2018-09-23T09:37:42.459Z,96802.86
2018-09-23T09:40:12.649Z,96796.26
2018-09-23T09:42:42.307Z,96798.20
2018-09-23T09:45:11.853Z,96788.64
2018-09-23T09:47:43.765Z,96777.20
2018-09-23T09:50:15.211Z,96782.09
2018-09-23T09:52:46.161Z,96784.27
2018-09-23T09:55:21.047Z,96779.56
2018-09-23T09:57:52.727Z,96772.88
2018-09-23T10:00:31.492Z,96776.64
2018-09-23T10:03:00.756Z,96770.56
2018-09-23T10:05:30.835Z,96769.17
2018-09-23T10:08:04.083Z,96763.75
2018-09-23T10:10:36.812Z,96757.36
2018-09-23T10:13:08.328Z,96759.38
2018-09-23T10:15:39.107Z,96762.66
2018-09-23T10:18:09.404Z,96753.58
2018-09-23T10:20:42.249Z,96758.91
2018-09-23T10:23:12.813Z,96752.00
2018-09-23T10:25:42.197Z,96751.39
2018-09-23T10:28:11.453Z,96750.05
2018-09-23T10:30:45.895Z,96743.20
2018-09-23T10:33:15.291Z,96736.05
2018-09-23T10:35:46.201Z,96729.86
2018-09-23T10:38:19.572Z,96720.38
2018-09-23T10:40:49.032Z,96724.20
2018-09-23T10:43:22.402Z,96716.87
2018-09-23T10:45:54.219Z,96716.78
2018-09-23T10:48:27.858Z,96714.20
2018-09-23T10:51:00.803Z,96703.85
2018-09-23T10:53:31.109Z,96702.61
2018-09-23T10:56:00.415Z,96701.23
2018-09-23T10:58:31.625Z,96700.60
2018-09-23T11:01:03.570Z,96701.83
2018-09-23T11:03:33.575Z,96699.54
2018-09-23T11:06:03.834Z,96687.95
2018-09-23T11:08:36.166Z,96687.69
2018-09-23T11:11:07.090Z,96678.30
2018-09-23T11:13:38.134Z,96672.67
2018-09-23T11:16:07.583Z,96667.80
2018-09-23T11:18:40.648Z,96663.66
2018-09-23T11:21:12.133Z,96653.58
2018-09-23T11:23:41.374Z,96654.86
2018-09-23T11:26:14.896Z,96653.40
2018-09-23T11:28:48.831Z,96644.20
2018-09-23T11:31:18.684Z,96629.84
2018-09-23T11:33:51.261Z,96621.54
2018-09-23T11:36:22.209Z,96618.08
2018-09-23T11:38:51.724Z,96604.48
2018-09-23T11:41:23.669Z,96598.52
2018-09-23T11:43:54.548Z,96585.96
2018-09-23T11:46:26.568Z,96585.20
2018-09-23T11:48:58.611Z,96576.95
2018-09-23T11:51:29.490Z,96575.94
2018-09-23T11:54:03.246Z,96568.61
2018-09-23T11:56:32.523Z,96552.98
2018-09-23T11:59:05.897Z,96550.75
2018-09-23T12:01:36.696Z,96556.91
2018-09-23T12:04:10.632Z,96535.22
2018-09-23T12:06:41.433Z,96514.31
2018-09-23T12:09:15.488Z,96501.02
2018-09-23T12:11:45.501Z,96496.09
2018-09-23T12:14:14.760Z,96488.30
2018-09-23T12:16:48.379Z,96479.19
2018-09-23T12:19:19.187Z,96477.33
2018-09-23T12:21:48.862Z,96471.24
2018-09-23T12:24:18.390Z,96469.53
2018-09-23T12:26:48.885Z,96468.27
2018-09-23T12:29:19.717Z,96450.65
2018-09-23T12:31:49.658Z,96435.03
2018-09-23T12:34:19.468Z,96434.37
2018-09-23T12:36:48.771Z,96441.06
2018-09-23T12:39:18.154Z,96430.02
2018-09-23T12:41:52.960Z,96426.21
2018-09-23T12:44:22.901Z,96416.14
2018-09-23T12:46:52.851Z,96409.77
2018-09-23T12:49:26.201Z,96403.05
2018-09-23T12:51:59.061Z,96391.40
2018-09-23T12:54:31.402Z,96396.67
2018-09-23T12:57:03.530Z,96385.55
2018-09-23T12:59:33.527Z,96389.66
2018-09-23T13:02:04.208Z,96373.34
2018-09-23T13:04:36.783Z,96370.88
2018-09-23T13:07:09.631Z,96358.37
2018-09-23T13:09:40.534Z,96360.66
2018-09-23T13:12:11.257Z,96353.79
2018-09-23T13:14:40.385Z,96348.70
2018-09-23T13:17:10.219Z,96351.45
2018-09-23T13:19:43.889Z,96337.39
2018-09-23T13:22:16.082Z,96329.56
2018-09-23T13:24:45.986Z,96332.16
2018-09-23T13:27:22.791Z,96323.62
2018-09-23T13:29:55.865Z,96320.72
2018-09-23T13:32:25.238Z,96321.48
2018-09-23T13:34:55.332Z,96302.27
2018-09-23T13:37:25.610Z,96297.48
2018-09-23T13:39:56.056Z,96291.30
2018-09-23T13:42:28.907Z,96287.78
2018-09-23T13:44:59.863Z,96275.59
2018-09-23T13:47:29.038Z,96272.58
2018-09-23T13:49:59.520Z,96264.28
2018-09-23T13:52:32.097Z,96263.77
2018-09-23T13:55:03.233Z,96245.83
2018-09-23T13:57:33.116Z,96243.11
2018-09-23T14:00:04.796Z,96234.78
2018-09-23T14:02:34.639Z,96218.08
2018-09-23T14:05:06.011Z,96221.30
2018-09-23T14:07:38.362Z,96214.81
2018-09-23T14:10:12.085Z,96201.44
2018-09-23T14:12:44.048Z,96192.73
2018-09-23T14:15:16.994Z,96209.98
2018-09-23T14:17:46.240Z,96201.62
2018-09-23T14:20:19.898Z,96194.03
2018-09-23T14:22:50.645Z,96175.45
2018-09-23T14:25:20.042Z,96171.19
2018-09-23T14:27:49.402Z,96142.97
2018-09-23T14:30:19.765Z,96135.88
2018-09-23T14:32:50.432Z,96124.64
2018-09-23T14:35:21.824Z,96132.13
2018-09-23T14:37:52.623Z,96136.09
2018-09-23T14:40:23.253Z,96138.47
2018-09-23T14:42:53.799Z,96131.26
2018-09-23T14:45:24.043Z,96121.73
2018-09-23T14:47:54.793Z,96137.90
2018-09-23T14:50:25.566Z,96114.87
2018-09-23T14:55:43.721Z,96107.05
2018-09-23T14:58:13.717Z,96107.47
2018-09-23T15:00:43.658Z,96094.12
2018-09-23T15:03:13.784Z,96091.59
2018-09-23T15:05:45.811Z,96082.24
2018-09-23T15:08:16.508Z,96072.15
2018-09-23T15:10:45.754Z,96051.50
2018-09-23T15:13:16.255Z,96041.95
2018-09-23T15:15:48.257Z,96041.79
2018-09-23T15:18:19.590Z,96040.20
2018-09-23T15:20:49.662Z,96036.83
2018-09-23T15:23:20.463Z,96024.23
2018-09-23T15:25:50.901Z,96027.22
2018-09-23T15:28:21.208Z,96024.30
2018-09-23T15:30:51.183Z,96018.36
2018-09-23T15:33:21.157Z,96027.63
2018-09-23T15:35:50.497Z,96026.33
2018-09-23T15:38:22.019Z,96013.38
2018-09-23T15:40:53.468Z,96006.42
2018-09-23T15:43:24.800Z,96002.53
2018-09-23T15:45:57.313Z,95999.69
2018-09-23T15:48:28.873Z,96001.34
2018-09-23T15:51:00.739Z,95982.81
2018-09-23T15:53:30.037Z,95987.97
2018-09-23T15:56:01.766Z,95976.30
2018-09-23T15:58:32.387Z,95971.85
2018-09-23T16:01:03.332Z,95955.55
2018-09-23T16:03:36.195Z,95956.10
2018-09-23T16:06:06.976Z,95944.08
2018-09-23T16:08:37.704Z,95940.19
2018-09-23T16:11:07.485Z,95943.14
2018-09-23T16:13:41.730Z,95937.95
2018-09-23T16:16:11.520Z,95932.96
2018-09-23T16:18:42.617Z,95916.86
2018-09-23T16:21:13.181Z,95909.08
2018-09-23T16:23:42.375Z,95901.66
2018-09-23T16:26:13.607Z,95905.19
2018-09-23T16:28:44.583Z,95909.08
2018-09-23T16:31:16.002Z,95911.08
2018-09-23T16:33:45.306Z,95906.84
2018-09-23T16:36:16.946Z,95899.81
2018-09-23T16:38:47.740Z,95912.31
2018-09-23T16:41:17.781Z,95918.30
2018-09-23T16:43:51.910Z,95917.91
2018-09-23T16:46:22.753Z,95920.09
2018-09-23T16:48:53.519Z,95920.47
2018-09-23T16:51:26.204Z,95923.59
2018-09-23T16:53:56.127Z,95921.53
2018-09-23T16:56:25.875Z,95920.78
2018-09-23T16:58:56.348Z,95927.34
2018-09-23T17:01:26.824Z,95920.87
2018-09-23T17:04:00.346Z,95920.57
2018-09-23T17:06:30.588Z,95924.45
2018-09-23T17:09:03.073Z,95922.41
2018-09-23T17:11:32.552Z,95906.95
2018-09-23T17:14:02.730Z,95902.59
2018-09-23T17:16:34.931Z,95898.69
2018-09-23T17:19:06.528Z,95892.87
2018-09-23T17:21:37.330Z,95900.46
2018-09-23T17:24:07.770Z,95898.41
2018-09-23T17:26:40.747Z,95918.00
2018-09-23T17:29:10.714Z,95923.90
2018-09-23T17:31:42.775Z,95916.73
2018-09-23T17:34:15.117Z,95924.30
2018-09-23T17:36:46.032Z,95909.64
2018-09-23T17:39:17.751Z,95914.00
2018-09-23T17:41:48.740Z,95907.05
2018-09-23T17:44:21.773Z,95906.00
2018-09-23T17:46:53.371Z,95928.27
2018-09-23T17:49:22.884Z,95915.89
2018-09-23T17:51:54.963Z,95908.13
2018-09-23T17:54:27.302Z,95904.69
2018-09-23T17:56:57.010Z,95914.33
2018-09-23T17:59:26.678Z,95916.26
2018-09-23T18:01:58.729Z,95923.27
2018-09-23T18:04:30.541Z,95944.16
2018-09-23T18:07:02.913Z,95929.34
2018-09-23T18:09:32.680Z,95937.51
2018-09-23T18:12:03.065Z,95932.12
2018-09-23T18:14:34.846Z,95940.64
2018-09-23T18:17:04.797Z,95935.81
2018-09-23T18:19:36.879Z,95948.41
2018-09-23T18:22:09.021Z,95938.16
2018-09-23T18:24:42.939Z,95967.75
2018-09-23T18:27:12.929Z,96073.03
2018-09-23T18:29:43.624Z,96122.27
2018-09-23T18:32:13.531Z,96167.59
2018-09-23T18:34:47.692Z,96160.58
2018-09-23T18:37:20.541Z,96237.87
2018-09-23T18:39:54.348Z,96212.20
2018-09-23T18:42:29.097Z,96273.67
2018-09-23T18:45:01.062Z,96235.34
2018-09-23T18:47:33.804Z,96233.09
2018-09-23T18:50:04.802Z,96219.29
2018-09-23T18:52:35.748Z,96273.73
2018-09-23T18:55:12.805Z,96257.09
2018-09-23T18:57:46.376Z,96276.97
2018-09-23T19:00:17.123Z,96294.97
2018-09-23T19:02:46.879Z,96269.03
2018-09-23T19:05:19.486Z,96246.28
2018-09-23T19:07:52.079Z,96267.88
2018-09-23T19:10:22.993Z,96247.62
2018-09-23T19:12:59.596Z,96209.45
2018-09-23T19:15:34.537Z,96258.23
2018-09-23T19:18:06.491Z,96241.69
2018-09-23T19:20:38.142Z,96233.09
2018-09-23T19:23:11.502Z,96245.41
2018-09-23T19:25:47.027Z,96251.84
2018-09-23T19:28:19.977Z,96285.09
2018-09-23T19:30:52.103Z,96282.61
2018-09-23T19:33:24.591Z,96310.73
2018-09-23T19:35:55.583Z,96332.94
2018-09-23T19:38:29.027Z,96334.76
2018-09-23T19:41:01.546Z,96305.70
2018-09-23T19:43:32.438Z,96322.86
2018-09-23T19:46:03.415Z,96336.03
2018-09-23T19:48:33.670Z,96351.84
2018-09-23T19:51:05.341Z,96364.63
2018-09-23T19:53:36.340Z,96389.38
2018-09-23T19:56:07.800Z,96402.23
2018-09-23T19:58:40.361Z,96411.57
2018-09-23T20:01:11.036Z,96380.17
2018-09-23T20:03:43.954Z,96389.09
2018-09-23T20:06:14.829Z,96409.11
2018-09-23T20:08:46.315Z,96407.41
2018-09-23T20:11:18.700Z,96441.47
2018-09-23T20:13:50.348Z,96448.32
2018-09-23T20:16:21.181Z,96463.75
2018-09-23T20:18:51.311Z,96457.36
2018-09-23T20:21:23.264Z,96465.48
2018-09-23T20:23:54.059Z,96471.58
2018-09-23T20:26:24.865Z,96483.98
2018-09-23T20:28:55.738Z,96477.69
2018-09-23T20:31:28.632Z,96468.28
2018-09-23T20:33:59.030Z,96459.73
2018-09-23T20:36:30.119Z,96458.15
2018-09-23T20:39:00.869Z,96451.39
2018-09-23T20:41:32.665Z,96486.46
2018-09-23T20:44:07.145Z,96536.31
2018-09-23T20:46:36.394Z,96478.05
2018-09-23T20:49:07.437Z,96506.27
2018-09-23T20:51:36.600Z,96519.89
2018-09-23T20:54:06.357Z,96541.09
2018-09-23T20:56:36.330Z,96560.78
2018-09-23T20:59:08.379Z,96565.09
2018-09-23T21:01:40.059Z,96566.77
2018-09-23T21:04:09.922Z,96536.61
2018-09-23T21:06:41.899Z,96538.89
2018-09-23T21:09:12.483Z,96579.37
2018-09-23T21:11:42.580Z,96618.17
2018-09-23T21:14:15.202Z,96638.64
2018-09-23T21:16:48.234Z,96616.95
2018-09-23T21:19:18.567Z,96587.69
2018-09-23T21:21:49.802Z,96584.33
2018-09-23T21:24:20.008Z,96593.73
2018-09-23T21:26:50.028Z,96604.88
2018-09-23T21:29:19.795Z,96615.95
2018-09-23T21:31:50.622Z,96661.04
2018-09-23T21:34:21.010Z,96692.63
2018-09-23T21:36:50.237Z,96722.42
2018-09-23T21:39:19.396Z,96732.23
2018-09-23T21:41:51.372Z,96767.52
2018-09-23T21:44:23.257Z,96798.18
2018-09-23T21:46:58.031Z,96824.52
2018-09-23T21:49:29.989Z,96851.77
2018-09-23T21:51:59.245Z,96898.57
2018-09-23T21:54:29.735Z,96902.84
2018-09-23T21:57:01.474Z,96884.13
2018-09-23T21:59:31.842Z,96916.89
2018-09-23T22:02:01.222Z,96950.49
2018-09-23T22:04:33.602Z,96977.73
2018-09-23T22:07:04.848Z,96977.73
2018-09-23T22:09:34.678Z,96985.00
2018-09-23T22:12:05.465Z,97006.65
2018-09-23T22:14:35.323Z,97000.70
2018-09-23T22:17:06.071Z,97021.95
2018-09-23T22:19:36.874Z,97027.88
2018-09-23T22:22:07.649Z,97014.29
2018-09-23T22:24:39.614Z,97027.06
2018-09-23T22:27:12.432Z,97044.03
2018-09-23T22:29:41.681Z,97053.36
2018-09-23T22:32:16.241Z,97072.02
2018-09-23T22:34:46.374Z,97108.89
2018-09-23T22:37:16.667Z,97137.27
2018-09-23T22:39:48.498Z,97149.97
2018-09-23T22:42:17.964Z,97166.02
2018-09-23T22:44:48.995Z,97180.45
2018-09-23T22:47:19.757Z,97197.42
2018-09-23T22:49:49.969Z,97217.30
2018-09-23T22:52:19.119Z,97245.65
2018-09-23T22:54:48.736Z,97247.77
2018-09-23T22:57:18.364Z,97250.70
2018-09-23T22:59:48.886Z,97264.64
2018-09-23T23:02:19.838Z,97267.44
2018-09-23T23:04:51.880Z,97267.78
2018-09-23T23:07:23.379Z,97273.20
2018-09-23T23:09:56.827Z,97260.47
2018-09-23T23:12:27.617Z,97285.42
2018-09-23T23:14:57.117Z,97300.70
2018-09-23T23:17:27.322Z,97311.30
2018-09-23T23:19:56.506Z,97320.22
2018-09-23T23:22:25.657Z,97306.23
2018-09-23T23:24:55.062Z,97300.30
2018-09-23T23:27:25.151Z,97306.27
2018-09-23T23:29:54.408Z,97317.39
2018-09-23T23:32:23.578Z,97309.36
2018-09-23T23:34:52.744Z,97351.30
2018-09-23T23:37:27.541Z,97356.31
2018-09-23T23:39:57.608Z,97336.57
2018-09-23T23:42:30.308Z,97353.25
2018-09-23T23:45:01.072Z,97360.66
2018-09-23T23:47:31.180Z,97366.50
2018-09-23T23:50:00.366Z,97400.34
2018-09-23T23:52:32.272Z,97405.09
2018-09-23T23:55:01.383Z,97414.91
2018-09-23T23:57:30.968Z,97424.19
